sensor_id;sensor_type;location;lat;lon;timestamp;P1;durP1;ratioP1;P2;durP2;ratioP2
69906;SDS011;57190;47.918;8.112;2023-04-23T00:01:05;1.77;;;1.45;;
69906;SDS011;57190;47.918;8.112;2023-04-23T00:03:32;2.03;;;1.60;;
69906;SDS011;57190;47.918;8.112;2023-04-23T00:06:09;2.65;;;1.80;;
69906;SDS011;57190;47.918;8.112;2023-04-23T00:08:38;1.60;;;1.50;;
69906;SDS011;57190;47.918;8.112;2023-04-23T00:11:05;1.70;;;1.60;;
69906;SDS011;57190;47.918;8.112;2023-04-23T00:13:31;2.03;;;1.75;;
69906;SDS011;57190;47.918;8.112;2023-04-23T00:15:57;1.95;;;1.83;;
69906;SDS011;57190;47.918;8.112;2023-04-23T00:18:23;1.92;;;1.67;;
69906;SDS011;57190;47.918;8.112;2023-04-23T00:20:49;1.80;;;1.48;;
69906;SDS011;57190;47.918;8.112;2023-04-23T00:23:14;1.45;;;1.35;;
69906;SDS011;57190;47.918;8.112;2023-04-23T00:25:40;1.52;;;1.15;;
69906;SDS011;57190;47.918;8.112;2023-04-23T00:28:06;1.77;;;1.35;;
69906;SDS011;57190;47.918;8.112;2023-04-23T00:30:32;1.50;;;1.40;;
69906;SDS011;57190;47.918;8.112;2023-04-23T00:32:58;1.10;;;1.00;;
69906;SDS011;57190;47.918;8.112;2023-04-23T00:35:23;0.95;;;0.95;;
69906;SDS011;57190;47.918;8.112;2023-04-23T00:37:49;0.80;;;0.80;;
69906;SDS011;57190;47.918;8.112;2023-04-23T00:40:14;0.80;;;0.80;;
69906;SDS011;57190;47.918;8.112;2023-04-23T00:42:40;3.55;;;0.90;;
69906;SDS011;57190;47.918;8.112;2023-04-23T00:45:06;0.90;;;0.90;;
69906;SDS011;57190;47.918;8.112;2023-04-23T00:47:36;0.68;;;0.68;;
69906;SDS011;57190;47.918;8.112;2023-04-23T00:50:02;0.73;;;0.60;;
69906;SDS011;57190;47.918;8.112;2023-04-23T00:52:28;0.90;;;0.90;;
69906;SDS011;57190;47.918;8.112;2023-04-23T00:54:54;2.15;;;0.70;;
69906;SDS011;57190;47.918;8.112;2023-04-23T00:57:20;0.70;;;0.70;;
69906;SDS011;57190;47.918;8.112;2023-04-23T00:59:47;0.70;;;0.70;;
69906;SDS011;57190;47.918;8.112;2023-04-23T01:02:13;1.20;;;1.13;;
69906;SDS011;57190;47.918;8.112;2023-04-23T01:04:39;0.80;;;0.80;;
69906;SDS011;57190;47.918;8.112;2023-04-23T01:07:08;0.82;;;0.70;;
69906;SDS011;57190;47.918;8.112;2023-04-23T01:09:35;1.02;;;0.80;;
69906;SDS011;57190;47.918;8.112;2023-04-23T01:12:01;0.88;;;0.80;;
69906;SDS011;57190;47.918;8.112;2023-04-23T01:14:30;0.68;;;0.68;;
69906;SDS011;57190;47.918;8.112;2023-04-23T01:16:56;0.75;;;0.68;;
69906;SDS011;57190;47.918;8.112;2023-04-23T01:19:22;0.52;;;0.52;;
69906;SDS011;57190;47.918;8.112;2023-04-23T01:21:47;0.98;;;0.90;;
69906;SDS011;57190;47.918;8.112;2023-04-23T01:24:14;0.70;;;0.70;;
69906;SDS011;57190;47.918;8.112;2023-04-23T01:26:40;0.80;;;0.80;;
69906;SDS011;57190;47.918;8.112;2023-04-23T01:29:06;1.35;;;1.25;;
69906;SDS011;57190;47.918;8.112;2023-04-23T01:31:32;0.60;;;0.60;;
69906;SDS011;57190;47.918;8.112;2023-04-23T01:33:57;0.60;;;0.60;;
69906;SDS011;57190;47.918;8.112;2023-04-23T01:36:24;0.65;;;0.65;;
69906;SDS011;57190;47.918;8.112;2023-04-23T01:38:51;0.80;;;0.80;;
69906;SDS011;57190;47.918;8.112;2023-04-23T01:41:17;0.68;;;0.65;;
69906;SDS011;57190;47.918;8.112;2023-04-23T01:43:44;0.70;;;0.70;;
69906;SDS011;57190;47.918;8.112;2023-04-23T01:46:10;0.77;;;0.77;;
69906;SDS011;57190;47.918;8.112;2023-04-23T01:48:36;1.27;;;0.60;;
69906;SDS011;57190;47.918;8.112;2023-04-23T01:51:02;0.50;;;0.50;;
69906;SDS011;57190;47.918;8.112;2023-04-23T01:53:28;0.60;;;0.60;;
69906;SDS011;57190;47.918;8.112;2023-04-23T01:55:54;0.50;;;0.45;;
69906;SDS011;57190;47.918;8.112;2023-04-23T01:58:21;0.70;;;0.70;;
69906;SDS011;57190;47.918;8.112;2023-04-23T02:00:47;0.70;;;0.70;;
69906;SDS011;57190;47.918;8.112;2023-04-23T02:03:13;1.27;;;0.50;;
69906;SDS011;57190;47.918;8.112;2023-04-23T02:05:39;0.63;;;0.50;;
69906;SDS011;57190;47.918;8.112;2023-04-23T02:08:05;0.77;;;0.52;;
69906;SDS011;57190;47.918;8.112;2023-04-23T02:10:32;0.60;;;0.60;;
69906;SDS011;57190;47.918;8.112;2023-04-23T02:12:57;0.82;;;0.60;;
69906;SDS011;57190;47.918;8.112;2023-04-23T02:15:23;0.77;;;0.68;;
69906;SDS011;57190;47.918;8.112;2023-04-23T02:17:49;0.60;;;0.60;;
69906;SDS011;57190;47.918;8.112;2023-04-23T02:20:16;0.60;;;0.60;;
69906;SDS011;57190;47.918;8.112;2023-04-23T02:22:43;0.88;;;0.60;;
69906;SDS011;57190;47.918;8.112;2023-04-23T02:25:10;0.45;;;0.45;;
69906;SDS011;57190;47.918;8.112;2023-04-23T02:27:35;1.95;;;0.70;;
69906;SDS011;57190;47.918;8.112;2023-04-23T02:30:01;0.57;;;0.43;;
69906;SDS011;57190;47.918;8.112;2023-04-23T02:32:28;0.50;;;0.50;;
69906;SDS011;57190;47.918;8.112;2023-04-23T02:34:53;0.50;;;0.50;;
69906;SDS011;57190;47.918;8.112;2023-04-23T02:37:19;0.52;;;0.52;;
69906;SDS011;57190;47.918;8.112;2023-04-23T02:39:45;0.40;;;0.40;;
69906;SDS011;57190;47.918;8.112;2023-04-23T02:42:12;0.50;;;0.50;;
69906;SDS011;57190;47.918;8.112;2023-04-23T02:44:38;0.50;;;0.50;;
69906;SDS011;57190;47.918;8.112;2023-04-23T02:47:03;0.80;;;0.80;;
69906;SDS011;57190;47.918;8.112;2023-04-23T02:49:29;0.45;;;0.45;;
69906;SDS011;57190;47.918;8.112;2023-04-23T02:51:55;0.30;;;0.30;;
69906;SDS011;57190;47.918;8.112;2023-04-23T02:54:20;0.50;;;0.50;;
69906;SDS011;57190;47.918;8.112;2023-04-23T02:56:46;1.42;;;0.50;;
69906;SDS011;57190;47.918;8.112;2023-04-23T02:59:12;0.47;;;0.47;;
69906;SDS011;57190;47.918;8.112;2023-04-23T03:01:37;0.50;;;0.50;;
69906;SDS011;57190;47.918;8.112;2023-04-23T03:04:03;0.50;;;0.50;;
69906;SDS011;57190;47.918;8.112;2023-04-23T03:06:29;0.43;;;0.43;;
69906;SDS011;57190;47.918;8.112;2023-04-23T03:08:56;0.60;;;0.60;;
69906;SDS011;57190;47.918;8.112;2023-04-23T03:11:21;0.50;;;0.50;;
69906;SDS011;57190;47.918;8.112;2023-04-23T03:13:47;0.47;;;0.47;;
69906;SDS011;57190;47.918;8.112;2023-04-23T03:16:12;0.50;;;0.50;;
69906;SDS011;57190;47.918;8.112;2023-04-23T03:18:38;0.93;;;0.60;;
69906;SDS011;57190;47.918;8.112;2023-04-23T03:21:04;0.60;;;0.60;;
69906;SDS011;57190;47.918;8.112;2023-04-23T03:23:30;0.63;;;0.60;;
69906;SDS011;57190;47.918;8.112;2023-04-23T03:25:56;0.50;;;0.50;;
69906;SDS011;57190;47.918;8.112;2023-04-23T03:28:22;0.60;;;0.60;;
69906;SDS011;57190;47.918;8.112;2023-04-23T03:30:48;0.50;;;0.40;;
69906;SDS011;57190;47.918;8.112;2023-04-23T03:33:13;0.50;;;0.50;;
69906;SDS011;57190;47.918;8.112;2023-04-23T03:35:39;0.60;;;0.60;;
69906;SDS011;57190;47.918;8.112;2023-04-23T03:38:04;0.60;;;0.60;;
69906;SDS011;57190;47.918;8.112;2023-04-23T03:40:30;0.70;;;0.70;;
69906;SDS011;57190;47.918;8.112;2023-04-23T03:42:56;0.47;;;0.47;;
69906;SDS011;57190;47.918;8.112;2023-04-23T03:45:22;0.80;;;0.60;;
69906;SDS011;57190;47.918;8.112;2023-04-23T03:47:48;0.60;;;0.60;;
69906;SDS011;57190;47.918;8.112;2023-04-23T03:50:13;0.40;;;0.40;;
69906;SDS011;57190;47.918;8.112;2023-04-23T03:52:39;0.93;;;0.70;;
69906;SDS011;57190;47.918;8.112;2023-04-23T03:55:04;0.67;;;0.63;;
69906;SDS011;57190;47.918;8.112;2023-04-23T03:57:31;1.27;;;0.67;;
69906;SDS011;57190;47.918;8.112;2023-04-23T03:59:58;0.70;;;0.70;;
69906;SDS011;57190;47.918;8.112;2023-04-23T04:02:23;0.60;;;0.60;;
69906;SDS011;57190;47.918;8.112;2023-04-23T04:04:49;0.50;;;0.50;;
69906;SDS011;57190;47.918;8.112;2023-04-23T04:07:16;0.70;;;0.50;;
69906;SDS011;57190;47.918;8.112;2023-04-23T04:09:42;0.67;;;0.67;;
69906;SDS011;57190;47.918;8.112;2023-04-23T04:12:07;0.80;;;0.80;;
69906;SDS011;57190;47.918;8.112;2023-04-23T04:14:33;0.70;;;0.70;;
69906;SDS011;57190;47.918;8.112;2023-04-23T04:16:58;0.90;;;0.90;;
69906;SDS011;57190;47.918;8.112;2023-04-23T04:19:24;0.70;;;0.70;;
69906;SDS011;57190;47.918;8.112;2023-04-23T04:21:50;0.60;;;0.60;;
69906;SDS011;57190;47.918;8.112;2023-04-23T04:24:16;0.73;;;0.73;;
69906;SDS011;57190;47.918;8.112;2023-04-23T04:26:43;0.70;;;0.70;;
69906;SDS011;57190;47.918;8.112;2023-04-23T04:29:09;0.73;;;0.70;;
69906;SDS011;57190;47.918;8.112;2023-04-23T04:31:36;0.80;;;0.80;;
69906;SDS011;57190;47.918;8.112;2023-04-23T04:34:02;0.80;;;0.80;;
69906;SDS011;57190;47.918;8.112;2023-04-23T04:36:27;0.70;;;0.70;;
69906;SDS011;57190;47.918;8.112;2023-04-23T04:38:54;0.80;;;0.80;;
69906;SDS011;57190;47.918;8.112;2023-04-23T04:41:23;0.70;;;0.70;;
69906;SDS011;57190;47.918;8.112;2023-04-23T04:43:52;0.70;;;0.70;;
69906;SDS011;57190;47.918;8.112;2023-04-23T04:46:22;0.60;;;0.60;;
69906;SDS011;57190;47.918;8.112;2023-04-23T04:48:50;0.80;;;0.67;;
69906;SDS011;57190;47.918;8.112;2023-04-23T04:51:16;1.00;;;0.90;;
69906;SDS011;57190;47.918;8.112;2023-04-23T04:53:41;1.00;;;0.80;;
69906;SDS011;57190;47.918;8.112;2023-04-23T04:56:07;1.03;;;1.00;;
69906;SDS011;57190;47.918;8.112;2023-04-23T04:58:33;0.73;;;0.73;;
69906;SDS011;57190;47.918;8.112;2023-04-23T05:00:59;0.80;;;0.80;;
69906;SDS011;57190;47.918;8.112;2023-04-23T05:03:25;1.00;;;1.00;;
69906;SDS011;57190;47.918;8.112;2023-04-23T05:05:51;1.67;;;0.90;;
69906;SDS011;57190;47.918;8.112;2023-04-23T05:15:09;0.90;;;0.90;;
69906;SDS011;57190;47.918;8.112;2023-04-23T05:17:37;1.20;;;1.00;;
69906;SDS011;57190;47.918;8.112;2023-04-23T05:20:03;0.77;;;0.77;;
69906;SDS011;57190;47.918;8.112;2023-04-23T05:22:30;0.95;;;0.90;;
69906;SDS011;57190;47.918;8.112;2023-04-23T05:24:55;1.63;;;1.00;;
69906;SDS011;57190;47.918;8.112;2023-04-23T05:27:21;1.52;;;1.27;;
69906;SDS011;57190;47.918;8.112;2023-04-23T05:29:47;0.97;;;0.93;;
69906;SDS011;57190;47.918;8.112;2023-04-23T05:32:12;1.27;;;1.17;;
69906;SDS011;57190;47.918;8.112;2023-04-23T05:34:38;1.45;;;1.05;;
69906;SDS011;57190;47.918;8.112;2023-04-23T05:37:04;1.17;;;1.10;;
69906;SDS011;57190;47.918;8.112;2023-04-23T05:39:30;1.40;;;1.30;;
69906;SDS011;57190;47.918;8.112;2023-04-23T05:41:56;1.45;;;1.10;;
69906;SDS011;57190;47.918;8.112;2023-04-23T05:44:22;0.90;;;0.90;;
69906;SDS011;57190;47.918;8.112;2023-04-23T05:46:48;1.00;;;1.00;;
69906;SDS011;57190;47.918;8.112;2023-04-23T05:49:14;1.00;;;1.00;;
69906;SDS011;57190;47.918;8.112;2023-04-23T05:51:39;1.67;;;0.95;;
69906;SDS011;57190;47.918;8.112;2023-04-23T05:54:05;1.08;;;1.08;;
69906;SDS011;57190;47.918;8.112;2023-04-23T05:56:31;1.20;;;1.10;;
69906;SDS011;57190;47.918;8.112;2023-04-23T05:58:56;2.30;;;1.15;;
69906;SDS011;57190;47.918;8.112;2023-04-23T06:01:22;2.90;;;2.70;;
69906;SDS011;57190;47.918;8.112;2023-04-23T06:03:47;2.35;;;2.15;;
69906;SDS011;57190;47.918;8.112;2023-04-23T06:06:13;2.97;;;2.25;;
69906;SDS011;57190;47.918;8.112;2023-04-23T06:08:38;1.45;;;1.35;;
69906;SDS011;57190;47.918;8.112;2023-04-23T06:11:04;2.13;;;1.80;;
69906;SDS011;57190;47.918;8.112;2023-04-23T06:13:30;1.90;;;1.20;;
69906;SDS011;57190;47.918;8.112;2023-04-23T06:15:56;1.05;;;1.05;;
69906;SDS011;57190;47.918;8.112;2023-04-23T06:18:22;1.00;;;1.00;;
69906;SDS011;57190;47.918;8.112;2023-04-23T06:20:48;1.52;;;1.42;;
69906;SDS011;57190;47.918;8.112;2023-04-23T06:23:15;0.98;;;0.98;;
69906;SDS011;57190;47.918;8.112;2023-04-23T06:25:41;1.30;;;1.20;;
69906;SDS011;57190;47.918;8.112;2023-04-23T06:28:07;1.95;;;1.27;;
69906;SDS011;57190;47.918;8.112;2023-04-23T06:30:33;1.23;;;1.13;;
69906;SDS011;57190;47.918;8.112;2023-04-23T06:32:58;1.67;;;1.30;;
69906;SDS011;57190;47.918;8.112;2023-04-23T06:35:25;2.00;;;1.40;;
69906;SDS011;57190;47.918;8.112;2023-04-23T06:37:51;1.38;;;1.27;;
69906;SDS011;57190;47.918;8.112;2023-04-23T06:40:16;1.40;;;1.30;;
69906;SDS011;57190;47.918;8.112;2023-04-23T06:42:42;1.00;;;1.00;;
69906;SDS011;57190;47.918;8.112;2023-04-23T06:45:09;1.25;;;1.15;;
69906;SDS011;57190;47.918;8.112;2023-04-23T06:47:35;1.30;;;1.20;;
69906;SDS011;57190;47.918;8.112;2023-04-23T06:50:01;1.73;;;1.63;;
69906;SDS011;57190;47.918;8.112;2023-04-23T06:52:27;1.75;;;1.25;;
69906;SDS011;57190;47.918;8.112;2023-04-23T06:54:53;1.00;;;1.00;;
69906;SDS011;57190;47.918;8.112;2023-04-23T06:57:18;1.00;;;1.00;;
69906;SDS011;57190;47.918;8.112;2023-04-23T06:59:45;1.40;;;1.30;;
69906;SDS011;57190;47.918;8.112;2023-04-23T07:02:11;1.02;;;1.02;;
69906;SDS011;57190;47.918;8.112;2023-04-23T07:04:37;1.13;;;1.00;;
69906;SDS011;57190;47.918;8.112;2023-04-23T07:07:02;1.25;;;1.05;;
69906;SDS011;57190;47.918;8.112;2023-04-23T07:09:28;2.50;;;1.20;;
69906;SDS011;57190;47.918;8.112;2023-04-23T07:11:53;1.20;;;0.95;;
69906;SDS011;57190;47.918;8.112;2023-04-23T07:14:19;0.90;;;0.90;;
69906;SDS011;57190;47.918;8.112;2023-04-23T07:16:45;1.10;;;1.00;;
69906;SDS011;57190;47.918;8.112;2023-04-23T07:19:10;1.05;;;1.05;;
69906;SDS011;57190;47.918;8.112;2023-04-23T07:21:36;1.10;;;0.90;;
69906;SDS011;57190;47.918;8.112;2023-04-23T07:24:01;1.00;;;1.00;;
69906;SDS011;57190;47.918;8.112;2023-04-23T07:26:33;1.40;;;1.30;;
69906;SDS011;57190;47.918;8.112;2023-04-23T07:28:59;1.02;;;1.02;;
69906;SDS011;57190;47.918;8.112;2023-04-23T07:31:25;1.05;;;1.05;;
69906;SDS011;57190;47.918;8.112;2023-04-23T07:33:52;1.00;;;0.93;;
69906;SDS011;57190;47.918;8.112;2023-04-23T07:36:19;1.10;;;1.10;;
69906;SDS011;57190;47.918;8.112;2023-04-23T07:38:44;1.20;;;1.10;;
69906;SDS011;57190;47.918;8.112;2023-04-23T07:41:10;1.25;;;0.95;;
69906;SDS011;57190;47.918;8.112;2023-04-23T07:43:37;1.02;;;1.02;;
69906;SDS011;57190;47.918;8.112;2023-04-23T07:46:03;1.05;;;1.05;;
69906;SDS011;57190;47.918;8.112;2023-04-23T07:48:29;1.00;;;0.90;;
69906;SDS011;57190;47.918;8.112;2023-04-23T07:50:55;0.95;;;0.90;;
69906;SDS011;57190;47.918;8.112;2023-04-23T07:53:21;1.02;;;1.02;;
69906;SDS011;57190;47.918;8.112;2023-04-23T07:55:46;0.70;;;0.70;;
69906;SDS011;57190;47.918;8.112;2023-04-23T07:58:12;1.10;;;1.00;;
69906;SDS011;57190;47.918;8.112;2023-04-23T08:00:37;1.13;;;0.77;;
69906;SDS011;57190;47.918;8.112;2023-04-23T08:03:03;0.80;;;0.80;;
69906;SDS011;57190;47.918;8.112;2023-04-23T08:05:28;0.82;;;0.82;;
69906;SDS011;57190;47.918;8.112;2023-04-23T08:07:54;0.70;;;0.70;;
69906;SDS011;57190;47.918;8.112;2023-04-23T08:10:19;0.80;;;0.80;;
69906;SDS011;57190;47.918;8.112;2023-04-23T08:12:45;0.80;;;0.80;;
69906;SDS011;57190;47.918;8.112;2023-04-23T08:15:10;0.70;;;0.70;;
69906;SDS011;57190;47.918;8.112;2023-04-23T08:17:36;3.85;;;0.90;;
69906;SDS011;57190;47.918;8.112;2023-04-23T08:20:02;0.70;;;0.70;;
69906;SDS011;57190;47.918;8.112;2023-04-23T08:22:30;0.70;;;0.70;;
69906;SDS011;57190;47.918;8.112;2023-04-23T08:24:56;0.80;;;0.80;;
69906;SDS011;57190;47.918;8.112;2023-04-23T08:27:21;0.60;;;0.60;;
69906;SDS011;57190;47.918;8.112;2023-04-23T08:29:47;0.60;;;0.60;;
69906;SDS011;57190;47.918;8.112;2023-04-23T08:32:12;1.10;;;0.70;;
69906;SDS011;57190;47.918;8.112;2023-04-23T08:34:38;0.60;;;0.60;;
69906;SDS011;57190;47.918;8.112;2023-04-23T08:37:03;0.95;;;0.80;;
69906;SDS011;57190;47.918;8.112;2023-04-23T08:39:29;2.67;;;0.60;;
69906;SDS011;57190;47.918;8.112;2023-04-23T08:41:57;1.00;;;0.88;;
69906;SDS011;57190;47.918;8.112;2023-04-23T08:44:29;1.20;;;1.10;;
69906;SDS011;57190;47.918;8.112;2023-04-23T08:46:56;0.85;;;0.75;;
69906;SDS011;57190;47.918;8.112;2023-04-23T08:49:24;1.00;;;0.90;;
69906;SDS011;57190;47.918;8.112;2023-04-23T08:51:57;0.82;;;0.82;;
69906;SDS011;57190;47.918;8.112;2023-04-23T08:54:39;0.98;;;0.77;;
69906;SDS011;57190;47.918;8.112;2023-04-23T08:57:09;1.20;;;1.10;;
69906;SDS011;57190;47.918;8.112;2023-04-23T08:59:36;2.08;;;1.10;;
69906;SDS011;57190;47.918;8.112;2023-04-23T09:02:03;0.88;;;0.82;;
69906;SDS011;57190;47.918;8.112;2023-04-23T09:04:33;0.80;;;0.70;;
69906;SDS011;57190;47.918;8.112;2023-04-23T09:07:00;0.70;;;0.70;;
69906;SDS011;57190;47.918;8.112;2023-04-23T09:09:26;1.63;;;0.63;;
69906;SDS011;57190;47.918;8.112;2023-04-23T09:11:56;1.58;;;1.40;;
69906;SDS011;57190;47.918;8.112;2023-04-23T09:14:23;1.40;;;0.90;;
69906;SDS011;57190;47.918;8.112;2023-04-23T09:16:49;0.90;;;0.85;;
69906;SDS011;57190;47.918;8.112;2023-04-23T09:19:16;1.35;;;0.73;;
69906;SDS011;57190;47.918;8.112;2023-04-23T09:21:43;1.10;;;0.73;;
69906;SDS011;57190;47.918;8.112;2023-04-23T09:24:10;0.80;;;0.80;;
69906;SDS011;57190;47.918;8.112;2023-04-23T09:26:42;1.33;;;0.80;;
69906;SDS011;57190;47.918;8.112;2023-04-23T09:29:16;1.83;;;0.80;;
69906;SDS011;57190;47.918;8.112;2023-04-23T09:31:46;1.90;;;1.17;;
69906;SDS011;57190;47.918;8.112;2023-04-23T09:34:16;1.55;;;0.90;;
69906;SDS011;57190;47.918;8.112;2023-04-23T09:36:43;1.77;;;0.95;;
69906;SDS011;57190;47.918;8.112;2023-04-23T09:39:13;0.93;;;0.88;;
69906;SDS011;57190;47.918;8.112;2023-04-23T09:41:40;1.08;;;0.90;;
69906;SDS011;57190;47.918;8.112;2023-04-23T09:44:06;2.42;;;0.90;;
69906;SDS011;57190;47.918;8.112;2023-04-23T09:46:40;1.88;;;1.10;;
69906;SDS011;57190;47.918;8.112;2023-04-23T09:49:06;1.35;;;0.70;;
69906;SDS011;57190;47.918;8.112;2023-04-23T09:51:37;0.90;;;0.88;;
69906;SDS011;57190;47.918;8.112;2023-04-23T09:54:09;1.17;;;0.80;;
69906;SDS011;57190;47.918;8.112;2023-04-23T09:56:35;1.10;;;0.90;;
69906;SDS011;57190;47.918;8.112;2023-04-23T09:59:01;1.35;;;0.73;;
69906;SDS011;57190;47.918;8.112;2023-04-23T10:01:27;1.08;;;0.82;;
69906;SDS011;57190;47.918;8.112;2023-04-23T10:03:53;1.38;;;0.98;;
69906;SDS011;57190;47.918;8.112;2023-04-23T10:06:27;1.48;;;1.10;;
69906;SDS011;57190;47.918;8.112;2023-04-23T10:08:57;1.58;;;1.10;;
69906;SDS011;57190;47.918;8.112;2023-04-23T10:11:25;1.33;;;1.20;;
69906;SDS011;57190;47.918;8.112;2023-04-23T10:13:52;2.08;;;1.20;;
69906;SDS011;57190;47.918;8.112;2023-04-23T10:16:19;1.58;;;1.05;;
69906;SDS011;57190;47.918;8.112;2023-04-23T10:18:45;1.17;;;1.08;;
69906;SDS011;57190;47.918;8.112;2023-04-23T10:21:12;2.25;;;0.90;;
69906;SDS011;57190;47.918;8.112;2023-04-23T10:23:41;1.65;;;1.20;;
69906;SDS011;57190;47.918;8.112;2023-04-23T10:26:08;1.17;;;0.93;;
69906;SDS011;57190;47.918;8.112;2023-04-23T10:28:37;2.10;;;1.27;;
69906;SDS011;57190;47.918;8.112;2023-04-23T10:31:04;1.42;;;0.95;;
69906;SDS011;57190;47.918;8.112;2023-04-23T10:33:30;1.33;;;0.95;;
69906;SDS011;57190;47.918;8.112;2023-04-23T10:35:57;1.30;;;0.85;;
69906;SDS011;57190;47.918;8.112;2023-04-23T10:38:24;2.28;;;1.23;;
69906;SDS011;57190;47.918;8.112;2023-04-23T10:40:52;1.90;;;1.15;;
69906;SDS011;57190;47.918;8.112;2023-04-23T10:43:20;1.60;;;1.08;;
69906;SDS011;57190;47.918;8.112;2023-04-23T10:45:48;1.48;;;1.10;;
69906;SDS011;57190;47.918;8.112;2023-04-23T10:48:14;2.40;;;1.10;;
69906;SDS011;57190;47.918;8.112;2023-04-23T10:50:41;1.45;;;1.35;;
69906;SDS011;57190;47.918;8.112;2023-04-23T10:53:17;1.70;;;1.10;;
69906;SDS011;57190;47.918;8.112;2023-04-23T10:55:45;1.67;;;1.38;;
69906;SDS011;57190;47.918;8.112;2023-04-23T10:58:11;1.30;;;0.95;;
69906;SDS011;57190;47.918;8.112;2023-04-23T11:03:50;1.13;;;1.02;;
69906;SDS011;57190;47.918;8.112;2023-04-23T11:06:00;1.77;;;1.08;;
69906;SDS011;57190;47.918;8.112;2023-04-23T11:08:29;1.80;;;1.05;;
69906;SDS011;57190;47.918;8.112;2023-04-23T11:10:57;2.15;;;0.98;;
69906;SDS011;57190;47.918;8.112;2023-04-23T11:13:24;1.30;;;1.00;;
69906;SDS011;57190;47.918;8.112;2023-04-23T11:24:38;1.52;;;1.10;;
69906;SDS011;57190;47.918;8.112;2023-04-23T11:27:13;2.25;;;1.33;;
69906;SDS011;57190;47.918;8.112;2023-04-23T11:29:40;1.42;;;1.08;;
69906;SDS011;57190;47.918;8.112;2023-04-23T11:32:08;1.23;;;1.10;;
69906;SDS011;57190;47.918;8.112;2023-04-23T11:34:40;2.03;;;1.30;;
69906;SDS011;57190;47.918;8.112;2023-04-23T11:37:08;2.53;;;1.10;;
69906;SDS011;57190;47.918;8.112;2023-04-23T11:39:35;1.60;;;1.05;;
69906;SDS011;57190;47.918;8.112;2023-04-23T11:42:01;1.42;;;0.90;;
69906;SDS011;57190;47.918;8.112;2023-04-23T11:44:27;1.38;;;1.27;;
69906;SDS011;57190;47.918;8.112;2023-04-23T11:46:52;1.38;;;0.90;;
69906;SDS011;57190;47.918;8.112;2023-04-23T11:49:18;2.33;;;1.30;;
69906;SDS011;57190;47.918;8.112;2023-04-23T11:51:45;1.60;;;1.50;;
69906;SDS011;57190;47.918;8.112;2023-04-23T11:54:12;1.10;;;1.00;;
69906;SDS011;57190;47.918;8.112;2023-04-23T11:56:39;1.48;;;1.38;;
69906;SDS011;57190;47.918;8.112;2023-04-23T11:59:05;1.70;;;1.20;;
69906;SDS011;57190;47.918;8.112;2023-04-23T12:01:40;1.85;;;1.00;;
69906;SDS011;57190;47.918;8.112;2023-04-23T12:04:12;2.85;;;1.02;;
69906;SDS011;57190;47.918;8.112;2023-04-23T12:06:39;1.65;;;1.27;;
69906;SDS011;57190;47.918;8.112;2023-04-23T12:09:06;1.25;;;1.00;;
69906;SDS011;57190;47.918;8.112;2023-04-23T12:11:33;1.52;;;1.20;;
69906;SDS011;57190;47.918;8.112;2023-04-23T12:13:59;1.02;;;0.93;;
69906;SDS011;57190;47.918;8.112;2023-04-23T12:16:35;1.77;;;1.20;;
69906;SDS011;57190;47.918;8.112;2023-04-23T12:19:02;2.63;;;1.27;;
69906;SDS011;57190;47.918;8.112;2023-04-23T12:21:28;1.73;;;1.20;;
69906;SDS011;57190;47.918;8.112;2023-04-23T12:23:54;2.83;;;1.10;;
69906;SDS011;57190;47.918;8.112;2023-04-23T12:26:20;2.42;;;1.20;;
69906;SDS011;57190;47.918;8.112;2023-04-23T12:28:46;4.97;;;1.27;;
69906;SDS011;57190;47.918;8.112;2023-04-23T12:31:18;1.17;;;1.08;;
69906;SDS011;57190;47.918;8.112;2023-04-23T12:33:45;1.20;;;1.10;;
69906;SDS011;57190;47.918;8.112;2023-04-23T12:36:10;1.45;;;1.13;;
69906;SDS011;57190;47.918;8.112;2023-04-23T12:38:39;1.55;;;1.00;;
69906;SDS011;57190;47.918;8.112;2023-04-23T12:41:06;1.67;;;1.20;;
69906;SDS011;57190;47.918;8.112;2023-04-23T12:43:31;1.20;;;1.10;;
69906;SDS011;57190;47.918;8.112;2023-04-23T12:45:57;1.63;;;1.10;;
69906;SDS011;57190;47.918;8.112;2023-04-23T12:48:22;1.40;;;1.30;;
69906;SDS011;57190;47.918;8.112;2023-04-23T12:50:48;2.08;;;1.10;;
69906;SDS011;57190;47.918;8.112;2023-04-23T12:53:13;1.10;;;1.05;;
69906;SDS011;57190;47.918;8.112;2023-04-23T12:55:39;1.27;;;0.95;;
69906;SDS011;57190;47.918;8.112;2023-04-23T12:58:07;2.28;;;1.27;;
69906;SDS011;57190;47.918;8.112;2023-04-23T13:00:33;1.55;;;1.00;;
69906;SDS011;57190;47.918;8.112;2023-04-23T13:02:58;1.77;;;1.13;;
69906;SDS011;57190;47.918;8.112;2023-04-23T13:05:24;2.00;;;1.25;;
69906;SDS011;57190;47.918;8.112;2023-04-23T13:07:49;1.95;;;1.00;;
69906;SDS011;57190;47.918;8.112;2023-04-23T13:13:39;1.55;;;1.05;;
69906;SDS011;57190;47.918;8.112;2023-04-23T13:16:05;1.88;;;1.27;;
69906;SDS011;57190;47.918;8.112;2023-04-23T13:18:30;1.40;;;1.30;;
69906;SDS011;57190;47.918;8.112;2023-04-23T13:20:56;1.77;;;1.35;;
69906;SDS011;57190;47.918;8.112;2023-04-23T13:23:21;1.38;;;1.20;;
69906;SDS011;57190;47.918;8.112;2023-04-23T13:25:47;1.77;;;1.35;;
69906;SDS011;57190;47.918;8.112;2023-04-23T13:28:12;1.95;;;1.30;;
69906;SDS011;57190;47.918;8.112;2023-04-23T13:30:37;2.22;;;1.35;;
69906;SDS011;57190;47.918;8.112;2023-04-23T13:33:03;1.40;;;1.30;;
69906;SDS011;57190;47.918;8.112;2023-04-23T13:35:28;1.08;;;1.08;;
69906;SDS011;57190;47.918;8.112;2023-04-23T13:37:54;1.40;;;1.08;;
69906;SDS011;57190;47.918;8.112;2023-04-23T13:40:19;2.05;;;1.27;;
69906;SDS011;57190;47.918;8.112;2023-04-23T13:42:45;1.77;;;1.13;;
69906;SDS011;57190;47.918;8.112;2023-04-23T13:45:13;1.90;;;1.52;;
69906;SDS011;57190;47.918;8.112;2023-04-23T13:47:39;2.00;;;1.40;;
69906;SDS011;57190;47.918;8.112;2023-04-23T13:50:05;1.42;;;1.20;;
69906;SDS011;57190;47.918;8.112;2023-04-23T13:52:31;1.20;;;1.10;;
69906;SDS011;57190;47.918;8.112;2023-04-23T13:54:57;2.17;;;1.75;;
69906;SDS011;57190;47.918;8.112;2023-04-23T13:57:25;1.27;;;1.20;;
69906;SDS011;57190;47.918;8.112;2023-04-23T13:59:50;1.73;;;1.27;;
69906;SDS011;57190;47.918;8.112;2023-04-23T14:02:19;1.33;;;1.08;;
69906;SDS011;57190;47.918;8.112;2023-04-23T14:04:44;1.70;;;1.02;;
69906;SDS011;57190;47.918;8.112;2023-04-23T14:07:10;1.40;;;1.10;;
69906;SDS011;57190;47.918;8.112;2023-04-23T14:09:35;1.30;;;1.20;;
69906;SDS011;57190;47.918;8.112;2023-04-23T14:12:01;1.92;;;1.00;;
69906;SDS011;57190;47.918;8.112;2023-04-23T14:14:26;2.53;;;1.63;;
69906;SDS011;57190;47.918;8.112;2023-04-23T14:16:52;0.85;;;0.80;;
69906;SDS011;57190;47.918;8.112;2023-04-23T14:19:18;1.30;;;1.10;;
69906;SDS011;57190;47.918;8.112;2023-04-23T14:21:44;1.63;;;0.90;;
69906;SDS011;57190;47.918;8.112;2023-04-23T14:24:27;1.52;;;0.80;;
69906;SDS011;57190;47.918;8.112;2023-04-23T14:26:57;0.75;;;0.75;;
69906;SDS011;57190;47.918;8.112;2023-04-23T14:32:07;1.13;;;0.70;;
69906;SDS011;57190;47.918;8.112;2023-04-23T14:34:41;2.33;;;0.85;;
69906;SDS011;57190;47.918;8.112;2023-04-23T14:37:10;1.10;;;0.70;;
69906;SDS011;57190;47.918;8.112;2023-04-23T14:39:43;0.60;;;0.55;;
69906;SDS011;57190;47.918;8.112;2023-04-23T14:42:10;0.98;;;0.70;;
69906;SDS011;57190;47.918;8.112;2023-04-23T14:44:36;0.70;;;0.70;;
69906;SDS011;57190;47.918;8.112;2023-04-23T14:47:02;0.80;;;0.80;;
69906;SDS011;57190;47.918;8.112;2023-04-23T14:49:32;0.75;;;0.75;;
69906;SDS011;57190;47.918;8.112;2023-04-23T14:51:58;0.70;;;0.70;;
69906;SDS011;57190;47.918;8.112;2023-04-23T14:54:24;1.30;;;0.93;;
69906;SDS011;57190;47.918;8.112;2023-04-23T14:56:50;1.15;;;0.70;;
69906;SDS011;57190;47.918;8.112;2023-04-23T14:59:17;0.85;;;0.70;;
69906;SDS011;57190;47.918;8.112;2023-04-23T15:01:43;0.98;;;0.82;;
69906;SDS011;57190;47.918;8.112;2023-04-23T15:04:09;0.93;;;0.82;;
69906;SDS011;57190;47.918;8.112;2023-04-23T15:06:36;0.90;;;0.90;;
69906;SDS011;57190;47.918;8.112;2023-04-23T15:09:02;0.90;;;0.80;;